createdAt,value
2023-01-15T00:00:31.370Z,0.20
2023-01-15T00:01:31.443Z,0.20
2023-01-15T00:02:31.430Z,0.30
2023-01-15T00:03:31.458Z,0.20
2023-01-15T00:04:31.369Z,0.20
2023-01-15T00:05:31.363Z,0.20
2023-01-15T00:06:31.368Z,0.30
2023-01-15T00:07:31.376Z,0.20
2023-01-15T00:08:31.364Z,0.20
2023-01-15T00:09:31.387Z,0.20
2023-01-15T00:10:31.352Z,0.20
2023-01-15T00:11:31.372Z,0.30
2023-01-15T00:12:31.352Z,0.20
2023-01-15T00:13:31.355Z,0.10
2023-01-15T00:14:31.368Z,0.20
2023-01-15T00:15:31.353Z,0.20
2023-01-15T00:16:31.354Z,0.20
2023-01-15T00:17:31.351Z,0.20
2023-01-15T00:18:31.343Z,0.20
2023-01-15T00:19:31.353Z,0.20
2023-01-15T00:20:31.344Z,0.20
2023-01-15T00:21:31.360Z,0.30
2023-01-15T00:22:31.343Z,0.20
2023-01-15T00:23:31.407Z,0.30
2023-01-15T00:24:31.340Z,0.30
2023-01-15T00:25:31.347Z,0.20
2023-01-15T00:26:31.337Z,0.20
2023-01-15T00:27:31.344Z,0.30
2023-01-15T00:28:31.335Z,0.30
2023-01-15T00:29:31.341Z,0.20
2023-01-15T00:30:31.337Z,0.40
2023-01-15T00:31:31.415Z,0.20
2023-01-15T00:32:31.332Z,0.20
2023-01-15T00:33:31.339Z,0.20
2023-01-15T00:34:31.330Z,0.30
2023-01-15T00:35:31.351Z,0.20
2023-01-15T00:36:31.327Z,0.30
2023-01-15T00:37:31.337Z,0.20
2023-01-15T00:38:31.333Z,0.20
2023-01-15T00:39:31.332Z,0.30
2023-01-15T00:40:31.326Z,0.20
2023-01-15T00:41:31.334Z,0.20
2023-01-15T00:42:31.325Z,0.30
2023-01-15T00:43:31.332Z,0.20
2023-01-15T00:44:31.323Z,0.20
2023-01-15T00:45:31.326Z,0.20
2023-01-15T00:46:31.340Z,0.20
2023-01-15T00:47:31.325Z,0.30
2023-01-15T00:48:31.316Z,0.30
2023-01-15T00:49:31.327Z,0.60
2023-01-15T00:50:31.314Z,0.20
2023-01-15T00:51:31.318Z,0.30
2023-01-15T00:52:31.315Z,0.30
2023-01-15T00:53:31.318Z,0.20
2023-01-15T00:54:31.313Z,0.30
2023-01-15T00:55:31.316Z,0.30
2023-01-15T00:56:31.314Z,0.20
2023-01-15T00:57:31.314Z,0.40
2023-01-15T00:58:31.311Z,0.30
2023-01-15T00:59:31.313Z,0.20
2023-01-15T01:00:31.332Z,0.40
2023-01-15T01:01:31.437Z,0.30
2023-01-15T01:02:31.332Z,0.20
2023-01-15T01:03:31.312Z,0.20
2023-01-15T01:04:31.303Z,0.20
2023-01-15T01:05:31.306Z,0.40
2023-01-15T01:06:31.296Z,0.30
2023-01-15T01:07:31.308Z,0.20
2023-01-15T01:08:31.297Z,0.30
2023-01-15T01:09:31.306Z,0.30
2023-01-15T01:10:31.296Z,0.30
2023-01-15T01:11:31.302Z,0.40
2023-01-15T01:12:31.292Z,0.30
2023-01-15T01:13:31.297Z,0.30
2023-01-15T01:14:31.288Z,0.20
2023-01-15T01:15:31.299Z,0.20
2023-01-15T01:16:31.291Z,0.30
2023-01-15T01:17:31.293Z,0.30
2023-01-15T01:18:31.288Z,0.30
2023-01-15T01:19:31.290Z,0.30
2023-01-15T01:20:31.284Z,0.30
2023-01-15T01:21:31.304Z,0.30
2023-01-15T01:22:31.281Z,0.30
2023-01-15T01:23:31.287Z,0.30
2023-01-15T01:24:31.280Z,0.30
2023-01-15T01:25:31.286Z,0.20
2023-01-15T01:26:31.281Z,0.30
2023-01-15T01:27:31.283Z,0.30
2023-01-15T01:28:31.275Z,0.30
2023-01-15T01:29:31.286Z,0.40
2023-01-15T01:30:31.272Z,0.30
2023-01-15T01:31:31.376Z,0.20
2023-01-15T01:32:31.273Z,0.30
2023-01-15T01:33:31.278Z,0.30
2023-01-15T01:34:31.286Z,0.20
2023-01-15T01:35:31.276Z,0.30
2023-01-15T01:36:31.267Z,0.30
2023-01-15T01:37:31.274Z,0.30
2023-01-15T01:38:31.276Z,0.30
2023-01-15T01:39:31.277Z,0.60
2023-01-15T01:40:31.265Z,0.20
2023-01-15T01:41:31.273Z,0.40
2023-01-15T01:42:31.263Z,0.30
2023-01-15T01:43:31.269Z,0.30
2023-01-15T01:44:31.261Z,0.30
2023-01-15T01:45:31.276Z,0.20
2023-01-15T01:46:31.272Z,0.20
2023-01-15T01:47:31.273Z,0.30
2023-01-15T01:48:31.258Z,0.30
2023-01-15T01:49:31.263Z,0.30
2023-01-15T01:50:31.297Z,0.30
2023-01-15T01:51:31.268Z,0.20
2023-01-15T01:52:31.253Z,0.30
2023-01-15T01:53:31.266Z,0.20
2023-01-15T01:54:31.252Z,0.30
2023-01-15T01:55:31.262Z,0.30
2023-01-15T01:56:31.252Z,0.20
2023-01-15T01:57:31.254Z,0.30
2023-01-15T01:58:31.247Z,0.40
2023-01-15T01:59:31.265Z,0.30
2023-01-15T02:00:31.295Z,0.30
2023-01-15T02:01:31.414Z,0.20
2023-01-15T02:02:31.298Z,0.30
2023-01-15T02:03:31.250Z,0.30
2023-01-15T02:04:31.243Z,0.40
2023-01-15T02:05:31.248Z,0.20
2023-01-15T02:06:31.237Z,0.20
2023-01-15T02:07:31.246Z,0.20
2023-01-15T02:08:31.238Z,0.60
2023-01-15T02:09:31.243Z,0.30
2023-01-15T02:10:31.235Z,0.20
2023-01-15T02:11:31.241Z,0.40
2023-01-15T02:12:31.252Z,0.30
2023-01-15T02:13:31.240Z,0.40
2023-01-15T02:14:31.231Z,0.20
2023-01-15T02:15:31.238Z,0.60
2023-01-15T02:16:31.285Z,0.30
2023-01-15T02:17:31.236Z,0.30
2023-01-15T02:18:31.228Z,0.20
2023-01-15T02:19:31.248Z,0.30
2023-01-15T02:20:31.234Z,0.30
2023-01-15T02:21:31.230Z,0.30
2023-01-15T02:22:31.233Z,0.30
2023-01-15T02:23:31.231Z,0.30
2023-01-15T02:24:31.224Z,0.20
2023-01-15T02:25:31.233Z,0.30
2023-01-15T02:26:31.219Z,0.30
2023-01-15T02:27:31.227Z,0.30
2023-01-15T02:28:31.219Z,0.30
2023-01-15T02:29:31.223Z,0.20
2023-01-15T02:30:31.230Z,0.30
2023-01-15T02:31:31.262Z,0.30
2023-01-15T02:32:31.217Z,0.30
2023-01-15T02:33:31.217Z,0.30
2023-01-15T02:34:31.225Z,0.30
2023-01-15T02:35:31.217Z,0.30
2023-01-15T02:36:31.217Z,0.30
2023-01-15T02:37:31.209Z,0.30
2023-01-15T02:38:31.215Z,0.30
2023-01-15T02:39:31.206Z,0.30
2023-01-15T02:40:31.216Z,0.30
2023-01-15T02:41:31.204Z,0.30
2023-01-15T02:42:31.216Z,0.40
2023-01-15T02:43:31.202Z,0.30
2023-01-15T02:44:31.216Z,0.30
2023-01-15T02:45:31.268Z,0.30
2023-01-15T02:46:31.211Z,0.30
2023-01-15T02:47:31.200Z,0.30
2023-01-15T02:48:31.206Z,0.30
2023-01-15T02:49:31.198Z,0.30
2023-01-15T02:50:31.211Z,0.30
2023-01-15T02:51:31.193Z,0.30
2023-01-15T02:52:31.203Z,0.50
2023-01-15T02:53:31.223Z,0.30
2023-01-15T02:54:31.203Z,0.40
2023-01-15T02:55:31.198Z,0.30
2023-01-15T02:56:31.208Z,0.30
2023-01-15T02:57:31.190Z,0.30
2023-01-15T02:58:31.197Z,0.40
2023-01-15T02:59:31.191Z,0.30
2023-01-15T03:00:31.195Z,0.40
2023-01-15T03:01:31.272Z,0.30
2023-01-15T03:02:31.236Z,0.30
2023-01-15T03:03:31.185Z,0.30
2023-01-15T03:04:31.195Z,0.30
2023-01-15T03:05:31.181Z,0.30
2023-01-15T03:06:31.187Z,0.40
2023-01-15T03:07:31.181Z,0.30
2023-01-15T03:08:31.218Z,0.30
2023-01-15T03:09:31.179Z,0.30
2023-01-15T03:10:31.184Z,0.30
2023-01-15T03:11:31.177Z,0.30
2023-01-15T03:12:31.183Z,0.30
2023-01-15T03:13:31.175Z,0.40
2023-01-15T03:14:31.181Z,0.40
2023-01-15T03:15:31.174Z,0.30
2023-01-15T03:16:31.207Z,0.30
2023-01-15T03:17:31.174Z,0.40
2023-01-15T03:18:31.176Z,0.30
2023-01-15T03:19:31.169Z,0.30
2023-01-15T03:20:31.178Z,0.30
2023-01-15T03:21:31.164Z,0.30
2023-01-15T03:22:31.176Z,0.50
2023-01-15T03:23:31.165Z,0.30
2023-01-15T03:24:31.172Z,0.30
2023-01-15T03:25:31.168Z,0.30
2023-01-15T03:26:31.168Z,0.40
2023-01-15T03:27:31.161Z,0.30
2023-01-15T03:28:31.169Z,0.30
2023-01-15T03:29:31.161Z,0.30
2023-01-15T03:30:31.228Z,0.30
2023-01-15T03:31:31.157Z,0.30
2023-01-15T03:32:31.164Z,0.40
2023-01-15T03:33:31.155Z,0.30
2023-01-15T03:34:31.161Z,0.30
2023-01-15T03:35:31.153Z,0.30
2023-01-15T03:36:31.159Z,0.30
2023-01-15T03:37:31.150Z,0.30
2023-01-15T03:38:31.157Z,0.50
2023-01-15T03:39:31.149Z,0.30
2023-01-15T03:40:31.157Z,0.20
2023-01-15T03:41:31.154Z,0.30
2023-01-15T03:42:31.152Z,0.40
2023-01-15T03:43:31.148Z,0.30
2023-01-15T03:44:31.154Z,0.20
2023-01-15T03:45:31.191Z,0.20
2023-01-15T03:46:31.154Z,0.30
2023-01-15T03:47:31.141Z,0.40
2023-01-15T03:48:31.146Z,0.30
2023-01-15T03:49:31.153Z,0.40
2023-01-15T03:50:31.144Z,0.40
2023-01-15T03:51:31.136Z,0.30
2023-01-15T03:52:31.145Z,0.40
2023-01-15T03:53:31.135Z,0.30
2023-01-15T03:54:31.142Z,0.30
2023-01-15T03:55:31.132Z,0.40
2023-01-15T03:56:31.139Z,0.40
2023-01-15T03:57:31.130Z,0.40
2023-01-15T03:58:31.136Z,0.30
2023-01-15T03:59:31.137Z,0.40
2023-01-15T04:00:31.135Z,0.40
2023-01-15T04:01:31.177Z,0.30
2023-01-15T04:02:31.148Z,0.40
2023-01-15T04:03:31.127Z,0.30
2023-01-15T04:04:31.161Z,0.30
2023-01-15T04:05:31.124Z,0.40
2023-01-15T04:06:31.127Z,0.30
2023-01-15T04:07:31.128Z,0.30
2023-01-15T04:08:31.145Z,0.30
2023-01-15T04:09:31.136Z,0.30
2023-01-15T04:10:31.139Z,0.40
2023-01-15T04:11:31.121Z,0.30
2023-01-15T04:12:31.126Z,0.40
2023-01-15T04:13:31.597Z,0.40
2023-01-15T04:14:31.123Z,0.40
2023-01-15T04:15:31.126Z,0.30
2023-01-15T04:16:31.125Z,0.20
2023-01-15T04:17:31.113Z,0.30
2023-01-15T04:18:31.119Z,0.40
2023-01-15T04:19:31.111Z,0.40
2023-01-15T04:20:31.125Z,0.40
2023-01-15T04:21:31.123Z,0.40
2023-01-15T04:22:31.116Z,0.30
2023-01-15T04:23:31.107Z,0.30
2023-01-15T04:24:31.123Z,0.40
2023-01-15T04:25:31.107Z,0.30
2023-01-15T04:26:31.123Z,0.30
2023-01-15T04:27:31.104Z,0.30
2023-01-15T04:28:31.112Z,0.40
2023-01-15T04:29:31.100Z,0.40
2023-01-15T04:30:31.107Z,0.40
2023-01-15T04:31:31.104Z,0.30
2023-01-15T04:32:31.108Z,0.30
2023-01-15T04:33:31.097Z,0.30
2023-01-15T04:34:31.104Z,0.30
2023-01-15T04:35:31.096Z,0.40
2023-01-15T04:36:31.100Z,0.40
2023-01-15T04:37:31.092Z,0.40
2023-01-15T04:38:31.098Z,0.30
2023-01-15T04:39:31.095Z,0.30
2023-01-15T04:40:31.098Z,0.30
2023-01-15T04:41:31.089Z,0.40
2023-01-15T04:42:31.097Z,0.90
2023-01-15T04:43:31.088Z,0.30
2023-01-15T04:44:31.094Z,0.40
2023-01-15T04:45:31.083Z,0.40
2023-01-15T04:46:31.200Z,0.40
2023-01-15T04:47:31.091Z,0.30
2023-01-15T04:48:31.093Z,0.30
2023-01-15T04:49:31.085Z,0.30
2023-01-15T04:50:31.088Z,0.40
2023-01-15T04:51:31.086Z,0.30
2023-01-15T04:52:31.086Z,0.30
2023-01-15T04:53:31.078Z,0.40
2023-01-15T04:54:31.084Z,0.30
2023-01-15T04:55:31.076Z,0.30
2023-01-15T04:56:31.084Z,0.30
2023-01-15T04:57:31.075Z,0.30
2023-01-15T04:58:31.080Z,0.30
2023-01-15T04:59:31.073Z,0.30
2023-01-15T05:00:31.076Z,0.40
2023-01-15T05:01:31.265Z,0.30
2023-01-15T05:02:31.274Z,0.40
2023-01-15T05:03:31.069Z,0.40
2023-01-15T05:04:31.139Z,0.30
2023-01-15T05:05:31.064Z,0.30
2023-01-15T05:06:31.071Z,0.30
2023-01-15T05:07:31.076Z,0.40
2023-01-15T05:08:31.069Z,0.40
2023-01-15T05:09:31.062Z,0.30
2023-01-15T05:10:31.074Z,0.40
2023-01-15T05:11:31.059Z,0.30
2023-01-15T05:12:31.071Z,0.20
2023-01-15T05:13:31.067Z,0.30
2023-01-15T05:14:31.067Z,0.30
2023-01-15T05:15:31.098Z,0.30
2023-01-15T05:16:31.070Z,0.20
2023-01-15T05:17:31.054Z,0.20
2023-01-15T05:18:31.060Z,0.40
2023-01-15T05:19:31.054Z,0.40
2023-01-15T05:20:31.061Z,0.30
2023-01-15T05:21:31.049Z,0.30
2023-01-15T05:22:31.059Z,0.30
2023-01-15T05:23:31.047Z,0.30
2023-01-15T05:24:31.055Z,0.40
2023-01-15T05:25:31.045Z,0.20
2023-01-15T05:26:31.061Z,0.20
2023-01-15T05:27:31.047Z,0.20
2023-01-15T05:28:31.050Z,0.30
2023-01-15T05:29:31.043Z,0.30
2023-01-15T05:30:31.052Z,0.30
2023-01-15T05:31:31.042Z,0.50
2023-01-15T05:32:31.054Z,0.40
2023-01-15T05:33:31.037Z,0.30
2023-01-15T05:34:31.044Z,0.30
2023-01-15T05:35:31.035Z,0.30
2023-01-15T05:36:31.043Z,0.40
2023-01-15T05:37:31.035Z,0.30
2023-01-15T05:38:31.082Z,0.20
2023-01-15T05:39:31.033Z,0.30
2023-01-15T05:40:31.040Z,0.30
2023-01-15T05:41:31.058Z,0.30
2023-01-15T05:42:31.052Z,0.20
2023-01-15T05:43:31.029Z,0.30
2023-01-15T05:44:31.048Z,0.30
2023-01-15T05:45:31.034Z,0.30
2023-01-15T05:46:31.094Z,0.30
2023-01-15T05:47:31.034Z,0.20
2023-01-15T05:48:31.039Z,0.30
2023-01-15T05:49:31.033Z,0.30
2023-01-15T05:50:31.033Z,0.20
2023-01-15T05:51:31.020Z,0.30
2023-01-15T05:52:31.034Z,0.20
2023-01-15T05:53:31.019Z,0.20
2023-01-15T05:54:31.032Z,0.40
2023-01-15T05:55:31.017Z,0.20
2023-01-15T05:56:31.028Z,0.20
2023-01-15T05:57:31.016Z,0.20
2023-01-15T05:58:31.022Z,0.30
2023-01-15T05:59:31.023Z,0.20
2023-01-15T06:00:31.018Z,0.20
2023-01-15T06:01:31.092Z,0.20
2023-01-15T06:02:31.038Z,0.30
2023-01-15T06:03:31.078Z,0.20
2023-01-15T06:04:31.017Z,0.20
2023-01-15T06:05:31.007Z,0.20
2023-01-15T06:06:31.011Z,0.20
2023-01-15T06:07:31.006Z,0.30
2023-01-15T06:08:31.016Z,0.10
2023-01-15T06:09:31.007Z,0.20
2023-01-15T06:10:31.015Z,0.20
2023-01-15T06:11:31.009Z,0.20
2023-01-15T06:12:31.008Z,0.20
2023-01-15T06:13:31.001Z,0.20
2023-01-15T06:14:31.005Z,0.20
2023-01-15T06:15:30.995Z,0.20
2023-01-15T06:16:31.003Z,0.20
2023-01-15T06:17:30.993Z,0.20
2023-01-15T06:18:31.000Z,0.10
2023-01-15T06:19:30.993Z,0.20
2023-01-15T06:20:30.998Z,0.20
2023-01-15T06:21:30.993Z,0.20
2023-01-15T06:22:31.002Z,0.30
2023-01-15T06:23:30.987Z,0.30
2023-01-15T06:24:30.995Z,0.20
2023-01-15T06:25:30.985Z,0.10
2023-01-15T06:26:31.000Z,0.20
2023-01-15T06:27:30.985Z,0.20
2023-01-15T06:28:30.998Z,0.20
2023-01-15T06:29:30.997Z,0.10
2023-01-15T06:30:30.992Z,0.20
2023-01-15T06:31:31.111Z,0.30
2023-01-15T06:32:31.001Z,0.20
2023-01-15T06:33:30.981Z,0.20
2023-01-15T06:34:30.991Z,0.20
2023-01-15T06:35:30.982Z,0.20
2023-01-15T06:36:30.985Z,0.20
2023-01-15T06:37:30.975Z,0.20
2023-01-15T06:38:30.985Z,0.20
2023-01-15T06:39:30.974Z,0.20
2023-01-15T06:40:30.979Z,0.20
2023-01-15T06:41:30.970Z,0.20
2023-01-15T06:42:30.981Z,0.20
2023-01-15T06:43:30.969Z,0.20
2023-01-15T06:44:30.983Z,0.20
2023-01-15T06:45:30.967Z,0.20
2023-01-15T06:46:31.012Z,0.20
2023-01-15T06:47:30.971Z,0.20
2023-01-15T06:48:30.972Z,0.20
2023-01-15T06:49:30.966Z,0.20
2023-01-15T06:50:30.973Z,0.30
2023-01-15T06:51:31.381Z,0.20
2023-01-15T06:52:30.971Z,0.20
2023-01-15T06:53:30.966Z,0.20
2023-01-15T06:54:30.962Z,0.20
2023-01-15T06:55:30.969Z,0.20
2023-01-15T06:56:30.977Z,0.20
2023-01-15T06:57:30.974Z,0.20
2023-01-15T06:58:30.952Z,0.20
2023-01-15T06:59:30.963Z,0.20
2023-01-15T07:00:31.142Z,0.10
2023-01-15T07:01:31.018Z,0.10
2023-01-15T07:02:30.957Z,0.10
2023-01-15T07:03:31.045Z,0.20
2023-01-15T07:04:30.952Z,0.20
2023-01-15T07:05:30.956Z,0.20
2023-01-15T07:06:30.952Z,0.10
2023-01-15T07:07:30.958Z,0.20
2023-01-15T07:08:30.945Z,0.10
2023-01-15T07:09:30.950Z,0.20
2023-01-15T07:10:30.945Z,0.20
2023-01-15T07:11:30.956Z,0.20
2023-01-15T07:12:30.942Z,0.20
2023-01-15T07:13:30.945Z,0.10
2023-01-15T07:14:30.937Z,0.10
2023-01-15T07:15:30.944Z,0.20
2023-01-15T07:16:31.020Z,0.20
2023-01-15T07:17:30.942Z,0.20
2023-01-15T07:18:30.934Z,0.20
2023-01-15T07:19:30.942Z,0.20
2023-01-15T07:20:30.933Z,0.10
2023-01-15T07:21:31.007Z,0.20
2023-01-15T07:22:30.932Z,0.20
2023-01-15T07:23:30.942Z,0.20
2023-01-15T07:24:30.934Z,0.20
2023-01-15T07:25:30.934Z,0.20
2023-01-15T07:26:30.926Z,0.20
2023-01-15T07:27:30.970Z,0.20
2023-01-15T07:28:30.936Z,0.20
2023-01-15T07:29:31.714Z,0.10
2023-01-15T07:30:30.919Z,0.20
2023-01-15T07:31:30.970Z,0.20
2023-01-15T07:32:30.926Z,0.20
2023-01-15T07:33:30.924Z,0.20
2023-01-15T07:34:30.918Z,0.10
2023-01-15T07:35:30.932Z,0.20
2023-01-15T07:36:30.916Z,0.20
2023-01-15T07:37:30.919Z,0.20
2023-01-15T07:38:30.911Z,0.20
2023-01-15T07:39:30.921Z,0.20
2023-01-15T07:40:30.912Z,0.20
2023-01-15T07:41:30.918Z,0.20
2023-01-15T07:42:30.934Z,0.10
2023-01-15T07:43:30.920Z,0.10
2023-01-15T07:44:30.930Z,0.10
2023-01-15T07:45:31.009Z,0.20
2023-01-15T07:46:30.908Z,0.20
2023-01-15T07:47:30.922Z,0.20
2023-01-15T07:48:30.909Z,0.20
2023-01-15T07:49:30.910Z,0.20
2023-01-15T07:50:30.965Z,0.10
2023-01-15T07:51:30.907Z,0.20
2023-01-15T07:52:30.899Z,0.20
2023-01-15T07:53:30.905Z,0.20
2023-01-15T07:54:30.898Z,0.20
2023-01-15T07:55:30.904Z,0.10
2023-01-15T07:56:30.901Z,0.20
2023-01-15T07:57:30.911Z,0.20
2023-01-15T07:58:30.894Z,0.10
2023-01-15T07:59:30.904Z,0.10
2023-01-15T08:00:30.897Z,0.20
2023-01-15T08:01:31.018Z,0.20
2023-01-15T08:02:30.899Z,0.10
2023-01-15T08:03:30.897Z,0.20
2023-01-15T08:04:30.901Z,0.20
2023-01-15T08:05:30.908Z,0.10
2023-01-15T08:06:30.885Z,0.10
2023-01-15T08:07:30.892Z,0.20
2023-01-15T08:08:30.895Z,0.10
2023-01-15T08:09:30.891Z,0.20
2023-01-15T08:10:30.881Z,0.20
2023-01-15T08:11:30.891Z,0.20
2023-01-15T08:12:30.878Z,0.20
2023-01-15T08:13:30.892Z,0.10
2023-01-15T08:14:30.880Z,0.20
2023-01-15T08:15:30.887Z,0.10
2023-01-15T08:16:30.934Z,0.20
2023-01-15T08:17:30.881Z,0.20
2023-01-15T08:18:30.873Z,0.20
2023-01-15T08:19:30.882Z,0.10
2023-01-15T08:20:30.874Z,0.20
2023-01-15T08:21:30.877Z,0.20
2023-01-15T08:22:30.869Z,0.20
2023-01-15T08:23:30.877Z,0.10
2023-01-15T08:24:30.868Z,0.20
2023-01-15T08:25:30.871Z,0.20
2023-01-15T08:26:30.872Z,0.20
2023-01-15T08:27:31.347Z,0.10
2023-01-15T08:28:30.864Z,0.10
2023-01-15T08:29:30.882Z,0.20
2023-01-15T08:30:30.884Z,0.20
2023-01-15T08:31:30.902Z,0.10
2023-01-15T08:32:30.862Z,0.20
2023-01-15T08:33:30.874Z,0.10
2023-01-15T08:34:30.858Z,0.10
2023-01-15T08:35:30.866Z,0.10
2023-01-15T08:36:30.855Z,0.10
2023-01-15T08:37:30.863Z,0.10
2023-01-15T08:38:30.854Z,0.20
2023-01-15T08:39:30.876Z,0.20
2023-01-15T08:40:30.860Z,0.10
2023-01-15T08:41:30.858Z,0.20
2023-01-15T08:42:30.847Z,0.10
2023-01-15T08:43:30.877Z,0.10
2023-01-15T08:44:30.858Z,0.10
2023-01-15T08:45:30.897Z,0.10
2023-01-15T08:46:30.850Z,0.20
2023-01-15T08:47:30.852Z,0.20
2023-01-15T08:48:30.844Z,0.10
2023-01-15T08:49:30.850Z,0.10
2023-01-15T08:50:30.842Z,0.10
2023-01-15T08:51:30.849Z,0.20
2023-01-15T08:52:30.850Z,0.10
2023-01-15T08:53:30.850Z,0.10
2023-01-15T08:54:30.856Z,0.20
2023-01-15T08:55:30.849Z,0.10
2023-01-15T08:56:30.838Z,0.10
2023-01-15T08:57:30.856Z,0.10
2023-01-15T08:58:30.844Z,0.10
2023-01-15T08:59:30.877Z,0.10
2023-01-15T09:00:30.847Z,0.10
2023-01-15T09:01:30.939Z,0.10
2023-01-15T09:02:30.850Z,0.20
2023-01-15T09:03:30.840Z,0.10
2023-01-15T09:04:30.867Z,0.10
2023-01-15T09:05:30.839Z,0.10
2023-01-15T09:06:30.827Z,0.20
2023-01-15T09:07:30.903Z,0.10
2023-01-15T09:08:30.827Z,0.10
2023-01-15T09:09:30.836Z,0.10
2023-01-15T09:10:30.826Z,0.10
2023-01-15T09:11:30.831Z,0.10
2023-01-15T09:12:30.822Z,0.20
2023-01-15T09:13:30.830Z,0.10
2023-01-15T09:14:56.566Z,0.20
2023-01-15T09:15:30.834Z,0.10
2023-01-15T09:16:30.829Z,0.10
2023-01-15T09:17:30.823Z,0.10
2023-01-15T09:18:30.817Z,0.10
2023-01-15T09:19:30.827Z,0.10
2023-01-15T09:20:31.924Z,0.10
2023-01-15T09:21:30.825Z,0.10
2023-01-15T09:22:31.143Z,0.10
2023-01-15T09:23:30.827Z,0.10
2023-01-15T09:24:30.815Z,0.10
2023-01-15T09:25:30.817Z,0.10
2023-01-15T09:26:30.820Z,0.10
2023-01-15T09:27:30.815Z,0.20
2023-01-15T09:28:30.808Z,0.10
2023-01-15T09:29:30.818Z,0.10
2023-01-15T09:30:30.857Z,0.20
2023-01-15T09:31:30.821Z,0.20
2023-01-15T09:32:30.804Z,0.10
2023-01-15T09:33:30.811Z,0.10
2023-01-15T09:34:30.805Z,0.10
2023-01-15T09:35:30.807Z,0.10
2023-01-15T09:36:30.808Z,0.10
2023-01-15T09:37:30.809Z,0.10
2023-01-15T09:38:30.797Z,0.10
2023-01-15T09:39:30.807Z,0.10
2023-01-15T09:40:30.795Z,0.10
2023-01-15T09:41:30.804Z,0.20
2023-01-15T09:42:30.796Z,0.10
2023-01-15T09:43:30.804Z,0.10
2023-01-15T09:44:30.793Z,0.10
2023-01-15T09:45:30.803Z,0.10
2023-01-15T09:46:30.788Z,0.10
2023-01-15T09:47:30.800Z,0.10
2023-01-15T09:48:30.786Z,0.20
2023-01-15T09:49:30.792Z,0.10
2023-01-15T09:50:30.784Z,0.10
2023-01-15T09:51:30.791Z,0.10
2023-01-15T09:52:30.784Z,0.10
2023-01-15T09:53:30.799Z,0.10
2023-01-15T09:54:30.783Z,0.10
2023-01-15T09:55:30.789Z,0.10
2023-01-15T09:56:30.779Z,0.10
2023-01-15T09:57:30.815Z,0.10
2023-01-15T09:58:30.780Z,0.10
2023-01-15T09:59:30.791Z,0.10
2023-01-15T10:00:30.776Z,0.10
2023-01-15T10:01:30.905Z,0.10
2023-01-15T10:02:30.777Z,0.10
2023-01-15T10:03:30.863Z,0.10
2023-01-15T10:04:30.890Z,0.10
2023-01-15T10:05:30.791Z,0.10
2023-01-15T10:06:30.768Z,0.20
2023-01-15T10:07:30.778Z,0.10
2023-01-15T10:08:30.774Z,0.10
2023-01-15T10:09:30.774Z,0.10
2023-01-15T10:10:30.767Z,0.10
2023-01-15T10:11:30.774Z,0.10
2023-01-15T10:12:30.767Z,0.10
2023-01-15T10:13:30.783Z,0.10
2023-01-15T10:14:30.763Z,0.10
2023-01-15T10:15:30.809Z,0.10
2023-01-15T10:16:30.761Z,0.10
2023-01-15T10:17:30.772Z,0.10
2023-01-15T10:18:30.770Z,0.10
2023-01-15T10:19:43.953Z,0.10
2023-01-15T10:20:30.758Z,0.10
2023-01-15T10:21:30.766Z,0.10
2023-01-15T10:22:30.761Z,0.10
2023-01-15T10:23:30.765Z,0.10
2023-01-15T10:24:30.754Z,0.10
2023-01-15T10:25:30.759Z,0.10
2023-01-15T10:26:30.757Z,0.20
2023-01-15T10:27:30.775Z,0.10
2023-01-15T10:28:30.903Z,0.10
2023-01-15T10:29:30.755Z,0.10
2023-01-15T10:30:30.747Z,0.20
2023-01-15T10:31:30.753Z,0.10
2023-01-15T10:32:30.746Z,0.10
2023-01-15T10:33:30.778Z,0.10
2023-01-15T10:34:30.744Z,0.10
2023-01-15T10:35:30.751Z,0.10
2023-01-15T10:36:30.740Z,0.10
2023-01-15T10:37:30.750Z,0.10
2023-01-15T10:38:30.738Z,0.10
2023-01-15T10:39:30.749Z,0.10
2023-01-15T10:40:30.753Z,0.10
2023-01-15T10:41:30.743Z,0.10
2023-01-15T10:42:30.748Z,0.10
2023-01-15T10:43:30.744Z,0.10
2023-01-15T10:44:31.682Z,0.10
2023-01-15T10:45:30.741Z,0.10
2023-01-15T10:46:30.795Z,0.10
2023-01-15T10:47:30.741Z,0.10
2023-01-15T10:48:30.731Z,0.10
2023-01-15T10:49:30.742Z,0.10
2023-01-15T10:50:30.727Z,0.10
2023-01-15T10:51:30.733Z,0.10
2023-01-15T10:52:30.727Z,0.10
2023-01-15T10:53:30.737Z,0.10
2023-01-15T10:54:30.728Z,0.10
2023-01-15T10:55:30.732Z,0.10
2023-01-15T10:56:30.722Z,0.10
2023-01-15T10:57:30.734Z,0.10
2023-01-15T10:58:30.720Z,0.10
2023-01-15T10:59:30.733Z,0.10
2023-01-15T11:00:30.718Z,0.10
2023-01-15T11:01:30.795Z,0.10
2023-01-15T11:02:30.848Z,0.10
2023-01-15T11:03:30.723Z,0.10
2023-01-15T11:04:30.712Z,0.10
2023-01-15T11:05:30.721Z,0.20
2023-01-15T11:06:30.711Z,0.10
2023-01-15T11:07:30.716Z,0.10
2023-01-15T11:09:07.892Z,0.10
2023-01-15T11:09:30.711Z,0.10
2023-01-15T11:10:30.714Z,0.10
2023-01-15T11:11:30.711Z,0.10
2023-01-15T11:12:30.716Z,0.10
2023-01-15T11:13:30.704Z,0.10
2023-01-15T11:14:30.729Z,0.10
2023-01-15T11:15:30.727Z,0.10
2023-01-15T11:16:30.717Z,0.10
2023-01-15T11:17:30.700Z,0.10
2023-01-15T11:18:30.710Z,0.10
2023-01-15T11:19:30.699Z,0.10
2023-01-15T11:20:30.705Z,0.10
2023-01-15T11:21:30.705Z,0.20
2023-01-15T11:22:30.712Z,0.20
2023-01-15T11:23:30.700Z,0.10
2023-01-15T11:24:30.703Z,0.10
2023-01-15T11:25:30.803Z,0.10
2023-01-15T11:26:30.699Z,0.20
2023-01-15T11:27:30.703Z,0.10
2023-01-15T11:28:30.701Z,0.10
2023-01-15T11:29:30.689Z,0.10
2023-01-15T11:30:30.721Z,0.10
2023-01-15T11:31:30.743Z,0.10
2023-01-15T11:32:30.694Z,0.10
2023-01-15T11:33:30.688Z,0.10
2023-01-15T11:34:30.697Z,0.10
2023-01-15T11:35:30.691Z,0.10
2023-01-15T11:36:30.689Z,0.10
2023-01-15T11:37:30.683Z,0.10
2023-01-15T11:38:30.700Z,0.60
2023-01-15T11:39:30.681Z,0.10
2023-01-15T11:40:30.686Z,0.10
2023-01-15T11:41:30.678Z,0.10
2023-01-15T11:42:30.685Z,0.00
2023-01-15T11:43:30.677Z,0.10
2023-01-15T11:44:30.683Z,0.10
2023-01-15T11:45:30.675Z,0.00
2023-01-15T11:46:30.841Z,0.10
2023-01-15T11:47:30.685Z,0.10
2023-01-15T11:48:30.680Z,0.10
2023-01-15T11:49:30.671Z,0.10
2023-01-15T11:50:30.676Z,0.10
2023-01-15T11:51:30.668Z,0.10
2023-01-15T11:52:30.676Z,0.10
2023-01-15T11:53:30.668Z,0.10
2023-01-15T11:54:30.672Z,0.10
2023-01-15T11:55:30.665Z,0.10
2023-01-15T11:56:30.673Z,0.10
2023-01-15T11:57:30.669Z,0.10
2023-01-15T11:58:30.670Z,0.10
2023-01-15T11:59:30.660Z,0.10
2023-01-15T12:00:30.690Z,0.10
2023-01-15T12:01:30.697Z,0.10
2023-01-15T12:02:30.665Z,0.10
2023-01-15T12:03:30.730Z,0.10
2023-01-15T12:04:30.737Z,0.10
2023-01-15T12:05:30.655Z,0.10
2023-01-15T12:06:30.659Z,0.10
2023-01-15T12:07:30.659Z,0.10
2023-01-15T12:08:30.661Z,0.10
2023-01-15T12:09:30.653Z,0.10
2023-01-15T12:10:30.658Z,0.10
2023-01-15T12:11:30.650Z,0.10
2023-01-15T12:12:30.658Z,0.10
2023-01-15T12:13:30.647Z,0.10
2023-01-15T12:14:30.653Z,0.10
2023-01-15T12:15:30.647Z,0.10
2023-01-15T12:16:30.653Z,0.10
2023-01-15T12:17:30.645Z,0.10
2023-01-15T12:18:30.660Z,0.10
2023-01-15T12:19:30.642Z,0.10
2023-01-15T12:20:30.649Z,0.10
2023-01-15T12:21:30.641Z,0.10
2023-01-15T12:22:30.649Z,0.10
2023-01-15T12:23:30.636Z,0.10
2023-01-15T12:24:30.643Z,0.10
2023-01-15T12:25:30.633Z,0.10
2023-01-15T12:26:30.640Z,0.10
2023-01-15T12:27:30.633Z,0.10
2023-01-15T12:28:30.639Z,0.10
2023-01-15T12:29:30.630Z,0.10
2023-01-15T12:30:30.642Z,0.10
2023-01-15T12:31:30.733Z,0.10
2023-01-15T12:32:30.634Z,0.30
2023-01-15T12:33:30.628Z,0.10
2023-01-15T12:34:30.634Z,0.10
2023-01-15T12:35:30.633Z,0.10
2023-01-15T12:36:30.642Z,0.10
2023-01-15T12:37:30.622Z,0.10
2023-01-15T12:38:30.629Z,0.10
2023-01-15T12:39:30.623Z,0.10
2023-01-15T12:40:30.638Z,0.10
2023-01-15T12:41:30.626Z,0.10
2023-01-15T12:42:30.624Z,0.10
2023-01-15T12:43:30.619Z,0.10
2023-01-15T12:44:30.624Z,0.10
2023-01-15T12:45:30.619Z,0.10
2023-01-15T12:46:30.706Z,0.10
2023-01-15T12:47:30.623Z,0.10
2023-01-15T12:48:30.625Z,0.10
2023-01-15T12:49:30.612Z,0.10
2023-01-15T12:50:30.640Z,0.10
2023-01-15T12:51:30.610Z,0.10
2023-01-15T12:52:30.622Z,0.10
2023-01-15T12:53:30.607Z,0.10
2023-01-15T12:54:30.614Z,0.10
2023-01-15T12:55:30.606Z,0.10
2023-01-15T12:56:30.628Z,0.10
2023-01-15T12:57:30.604Z,0.10
2023-01-15T12:58:30.610Z,0.10
2023-01-15T12:59:30.603Z,0.10
2023-01-15T13:00:30.634Z,0.10
2023-01-15T13:01:30.644Z,0.10
2023-01-15T13:02:30.664Z,0.10
2023-01-15T13:03:30.605Z,0.10
2023-01-15T13:04:30.614Z,0.10
2023-01-15T13:05:30.614Z,0.10
2023-01-15T13:06:30.663Z,0.10
2023-01-15T13:07:30.599Z,0.10
2023-01-15T13:08:30.616Z,0.10
2023-01-15T13:09:30.597Z,0.10
2023-01-15T13:10:30.598Z,0.10
2023-01-15T13:11:30.590Z,0.10
2023-01-15T13:12:30.598Z,0.10
2023-01-15T13:13:30.590Z,0.10
2023-01-15T13:14:30.595Z,0.10
2023-01-15T13:15:30.588Z,0.10
2023-01-15T13:16:30.761Z,0.10
2023-01-15T13:17:30.589Z,0.10
2023-01-15T13:18:30.592Z,0.10